sensor_id;sensor_type;location;lat;lon;timestamp;temperature;humidity
14471;DHT22;7321;50.802;4.336;2023-06-14T00:01:24;23.30;74.60
14471;DHT22;7321;50.802;4.336;2023-06-14T00:03:50;23.30;75.80
14471;DHT22;7321;50.802;4.336;2023-06-14T00:06:16;23.20;76.50
14471;DHT22;7321;50.802;4.336;2023-06-14T00:08:42;23.10;77.20
14471;DHT22;7321;50.802;4.336;2023-06-14T00:11:09;23.00;78.10
14471;DHT22;7321;50.802;4.336;2023-06-14T00:13:34;22.90;78.80
14471;DHT22;7321;50.802;4.336;2023-06-14T00:16:00;22.90;80.40
14471;DHT22;7321;50.802;4.336;2023-06-14T00:18:26;22.80;80.90
14471;DHT22;7321;50.802;4.336;2023-06-14T00:20:55;22.80;81.20
14471;DHT22;7321;50.802;4.336;2023-06-14T00:23:21;22.90;82.10
14471;DHT22;7321;50.802;4.336;2023-06-14T00:25:47;22.90;82.30
14471;DHT22;7321;50.802;4.336;2023-06-14T00:28:13;22.80;83.10
14471;DHT22;7321;50.802;4.336;2023-06-14T00:30:39;22.80;84.30
14471;DHT22;7321;50.802;4.336;2023-06-14T00:33:05;22.70;85.00
14471;DHT22;7321;50.802;4.336;2023-06-14T00:35:31;22.70;85.90
14471;DHT22;7321;50.802;4.336;2023-06-14T00:37:57;22.70;86.90
14471;DHT22;7321;50.802;4.336;2023-06-14T00:40:23;22.70;86.90
14471;DHT22;7321;50.802;4.336;2023-06-14T00:42:49;22.80;87.40
14471;DHT22;7321;50.802;4.336;2023-06-14T00:45:15;22.70;88.20
14471;DHT22;7321;50.802;4.336;2023-06-14T00:47:42;22.80;88.40
14471;DHT22;7321;50.802;4.336;2023-06-14T00:50:09;22.80;89.00
14471;DHT22;7321;50.802;4.336;2023-06-14T00:52:36;22.80;89.00
14471;DHT22;7321;50.802;4.336;2023-06-14T00:55:02;22.90;89.30
14471;DHT22;7321;50.802;4.336;2023-06-14T00:57:28;22.70;90.00
14471;DHT22;7321;50.802;4.336;2023-06-14T00:59:58;22.70;90.50
14471;DHT22;7321;50.802;4.336;2023-06-14T01:02:23;22.70;90.50
14471;DHT22;7321;50.802;4.336;2023-06-14T01:04:52;22.50;91.00
14471;DHT22;7321;50.802;4.336;2023-06-14T01:15:35;22.40;92.30
14471;DHT22;7321;50.802;4.336;2023-06-14T01:18:02;22.40;92.60
14471;DHT22;7321;50.802;4.336;2023-06-14T01:20:32;22.40;92.80
14471;DHT22;7321;50.802;4.336;2023-06-14T01:22:58;22.40;93.20
14471;DHT22;7321;50.802;4.336;2023-06-14T01:25:25;22.40;93.60
14471;DHT22;7321;50.802;4.336;2023-06-14T01:28:03;22.30;93.60
14471;DHT22;7321;50.802;4.336;2023-06-14T01:30:30;22.40;93.70
14471;DHT22;7321;50.802;4.336;2023-06-14T01:32:59;22.50;93.90
14471;DHT22;7321;50.802;4.336;2023-06-14T01:35:25;22.50;93.90
14471;DHT22;7321;50.802;4.336;2023-06-14T01:37:51;22.50;93.70
14471;DHT22;7321;50.802;4.336;2023-06-14T01:40:18;22.40;94.20
14471;DHT22;7321;50.802;4.336;2023-06-14T01:42:47;22.30;94.40
14471;DHT22;7321;50.802;4.336;2023-06-14T01:45:15;22.20;95.00
14471;DHT22;7321;50.802;4.336;2023-06-14T01:47:42;22.00;96.00
14471;DHT22;7321;50.802;4.336;2023-06-14T01:50:10;21.80;96.70
14471;DHT22;7321;50.802;4.336;2023-06-14T01:52:37;21.70;97.70
14471;DHT22;7321;50.802;4.336;2023-06-14T01:55:06;21.60;98.50
14471;DHT22;7321;50.802;4.336;2023-06-14T01:57:33;21.50;99.30
14471;DHT22;7321;50.802;4.336;2023-06-14T01:59:59;21.40;99.90
14471;DHT22;7321;50.802;4.336;2023-06-14T02:02:25;21.40;99.90
14471;DHT22;7321;50.802;4.336;2023-06-14T02:04:51;21.40;99.90
14471;DHT22;7321;50.802;4.336;2023-06-14T02:07:17;21.40;99.90
14471;DHT22;7321;50.802;4.336;2023-06-14T02:09:43;21.40;99.90
14471;DHT22;7321;50.802;4.336;2023-06-14T02:12:09;21.30;99.90
14471;DHT22;7321;50.802;4.336;2023-06-14T02:14:37;21.30;99.90
14471;DHT22;7321;50.802;4.336;2023-06-14T02:17:03;21.10;99.90
14471;DHT22;7321;50.802;4.336;2023-06-14T02:19:30;21.10;99.90
14471;DHT22;7321;50.802;4.336;2023-06-14T02:21:56;21.20;99.90
14471;DHT22;7321;50.802;4.336;2023-06-14T02:24:22;21.20;99.90
14471;DHT22;7321;50.802;4.336;2023-06-14T02:26:49;21.10;99.90
14471;DHT22;7321;50.802;4.336;2023-06-14T02:29:15;21.00;99.90
14471;DHT22;7321;50.802;4.336;2023-06-14T02:31:41;20.90;99.90
14471;DHT22;7321;50.802;4.336;2023-06-14T02:34:07;21.00;99.90
14471;DHT22;7321;50.802;4.336;2023-06-14T02:36:36;20.90;99.90
14471;DHT22;7321;50.802;4.336;2023-06-14T02:39:08;20.90;99.90
14471;DHT22;7321;50.802;4.336;2023-06-14T02:41:35;20.90;99.90
14471;DHT22;7321;50.802;4.336;2023-06-14T02:44:01;20.90;99.90
14471;DHT22;7321;50.802;4.336;2023-06-14T02:46:26;20.70;99.90
14471;DHT22;7321;50.802;4.336;2023-06-14T02:48:52;20.60;99.90
14471;DHT22;7321;50.802;4.336;2023-06-14T02:51:18;20.60;99.90
14471;DHT22;7321;50.802;4.336;2023-06-14T02:53:44;20.50;99.90
14471;DHT22;7321;50.802;4.336;2023-06-14T02:56:10;20.40;99.90
14471;DHT22;7321;50.802;4.336;2023-06-14T02:58:37;20.40;99.90
14471;DHT22;7321;50.802;4.336;2023-06-14T03:01:05;20.50;99.90
14471;DHT22;7321;50.802;4.336;2023-06-14T03:03:33;20.40;99.90
14471;DHT22;7321;50.802;4.336;2023-06-14T03:05:59;20.40;99.90
14471;DHT22;7321;50.802;4.336;2023-06-14T03:08:31;20.40;99.90
14471;DHT22;7321;50.802;4.336;2023-06-14T03:11:04;20.40;99.90
14471;DHT22;7321;50.802;4.336;2023-06-14T03:13:31;20.40;99.90
14471;DHT22;7321;50.802;4.336;2023-06-14T03:16:00;20.40;99.90
14471;DHT22;7321;50.802;4.336;2023-06-14T03:18:29;20.40;99.90
14471;DHT22;7321;50.802;4.336;2023-06-14T03:20:56;20.30;99.90
14471;DHT22;7321;50.802;4.336;2023-06-14T03:23:26;20.20;99.90
14471;DHT22;7321;50.802;4.336;2023-06-14T03:25:52;20.30;99.90
14471;DHT22;7321;50.802;4.336;2023-06-14T03:28:18;20.30;99.90
14471;DHT22;7321;50.802;4.336;2023-06-14T03:30:44;20.40;99.90
14471;DHT22;7321;50.802;4.336;2023-06-14T03:33:10;20.40;99.90
14471;DHT22;7321;50.802;4.336;2023-06-14T03:35:36;20.50;99.90
14471;DHT22;7321;50.802;4.336;2023-06-14T03:38:02;20.40;99.90
14471;DHT22;7321;50.802;4.336;2023-06-14T03:40:29;20.40;99.90
14471;DHT22;7321;50.802;4.336;2023-06-14T03:42:55;20.40;99.90
14471;DHT22;7321;50.802;4.336;2023-06-14T03:45:21;20.30;99.90
14471;DHT22;7321;50.802;4.336;2023-06-14T03:47:48;20.20;99.90
14471;DHT22;7321;50.802;4.336;2023-06-14T03:50:14;20.30;99.90
14471;DHT22;7321;50.802;4.336;2023-06-14T03:52:40;20.40;99.90
14471;DHT22;7321;50.802;4.336;2023-06-14T03:55:08;20.30;99.90
14471;DHT22;7321;50.802;4.336;2023-06-14T03:57:34;20.30;99.90
14471;DHT22;7321;50.802;4.336;2023-06-14T04:00:00;20.30;99.90
14471;DHT22;7321;50.802;4.336;2023-06-14T04:02:26;20.30;99.90
14471;DHT22;7321;50.802;4.336;2023-06-14T04:04:54;20.20;99.90
14471;DHT22;7321;50.802;4.336;2023-06-14T04:07:20;20.30;99.90
14471;DHT22;7321;50.802;4.336;2023-06-14T04:09:46;20.40;99.90
14471;DHT22;7321;50.802;4.336;2023-06-14T04:12:12;20.60;99.90
14471;DHT22;7321;50.802;4.336;2023-06-14T04:14:39;20.50;99.90
14471;DHT22;7321;50.802;4.336;2023-06-14T04:17:06;20.50;99.90
14471;DHT22;7321;50.802;4.336;2023-06-14T04:19:32;20.50;99.90
14471;DHT22;7321;50.802;4.336;2023-06-14T04:21:59;20.50;99.90
14471;DHT22;7321;50.802;4.336;2023-06-14T04:24:28;20.60;99.90
14471;DHT22;7321;50.802;4.336;2023-06-14T04:26:58;20.60;99.90
14471;DHT22;7321;50.802;4.336;2023-06-14T04:29:25;20.40;99.90
14471;DHT22;7321;50.802;4.336;2023-06-14T04:31:53;20.40;99.90
14471;DHT22;7321;50.802;4.336;2023-06-14T04:34:20;20.40;99.90
14471;DHT22;7321;50.802;4.336;2023-06-14T04:36:47;20.30;99.90
14471;DHT22;7321;50.802;4.336;2023-06-14T04:39:19;20.30;99.90
14471;DHT22;7321;50.802;4.336;2023-06-14T04:41:46;20.40;99.90
14471;DHT22;7321;50.802;4.336;2023-06-14T04:44:13;20.50;99.90
14471;DHT22;7321;50.802;4.336;2023-06-14T04:46:42;20.60;99.90
14471;DHT22;7321;50.802;4.336;2023-06-14T04:49:17;20.60;99.90
14471;DHT22;7321;50.802;4.336;2023-06-14T04:51:44;20.50;99.90
14471;DHT22;7321;50.802;4.336;2023-06-14T04:54:11;20.60;99.90
14471;DHT22;7321;50.802;4.336;2023-06-14T04:56:43;20.50;99.90
14471;DHT22;7321;50.802;4.336;2023-06-14T04:59:10;20.70;99.90
14471;DHT22;7321;50.802;4.336;2023-06-14T05:01:40;20.80;99.90
14471;DHT22;7321;50.802;4.336;2023-06-14T05:04:06;20.80;99.90
14471;DHT22;7321;50.802;4.336;2023-06-14T05:06:32;20.80;99.90
14471;DHT22;7321;50.802;4.336;2023-06-14T05:08:58;20.90;99.90
14471;DHT22;7321;50.802;4.336;2023-06-14T05:11:24;20.90;99.90
14471;DHT22;7321;50.802;4.336;2023-06-14T05:13:51;20.80;99.90
14471;DHT22;7321;50.802;4.336;2023-06-14T05:16:17;20.80;99.90
14471;DHT22;7321;50.802;4.336;2023-06-14T05:18:45;20.80;99.90
14471;DHT22;7321;50.802;4.336;2023-06-14T05:21:13;20.70;99.90
14471;DHT22;7321;50.802;4.336;2023-06-14T05:23:38;20.70;99.90
14471;DHT22;7321;50.802;4.336;2023-06-14T05:26:04;20.70;99.90
14471;DHT22;7321;50.802;4.336;2023-06-14T05:28:32;20.80;99.90
14471;DHT22;7321;50.802;4.336;2023-06-14T05:30:58;21.00;99.90
14471;DHT22;7321;50.802;4.336;2023-06-14T05:33:24;21.00;99.90
14471;DHT22;7321;50.802;4.336;2023-06-14T05:35:50;21.00;99.90
14471;DHT22;7321;50.802;4.336;2023-06-14T05:38:15;21.10;99.90
14471;DHT22;7321;50.802;4.336;2023-06-14T05:40:41;21.10;99.90
14471;DHT22;7321;50.802;4.336;2023-06-14T05:43:07;21.20;99.90
14471;DHT22;7321;50.802;4.336;2023-06-14T05:45:33;21.10;99.90
14471;DHT22;7321;50.802;4.336;2023-06-14T05:47:59;21.10;99.90
14471;DHT22;7321;50.802;4.336;2023-06-14T05:50:27;21.10;99.90
14471;DHT22;7321;50.802;4.336;2023-06-14T05:52:54;21.10;99.90
14471;DHT22;7321;50.802;4.336;2023-06-14T05:55:19;21.40;99.90
14471;DHT22;7321;50.802;4.336;2023-06-14T05:57:45;21.40;99.90
14471;DHT22;7321;50.802;4.336;2023-06-14T06:00:13;21.50;99.90
14471;DHT22;7321;50.802;4.336;2023-06-14T06:02:45;21.70;99.90
14471;DHT22;7321;50.802;4.336;2023-06-14T06:05:13;21.80;99.90
14471;DHT22;7321;50.802;4.336;2023-06-14T06:07:41;21.90;99.90
14471;DHT22;7321;50.802;4.336;2023-06-14T06:10:07;22.00;99.90
14471;DHT22;7321;50.802;4.336;2023-06-14T06:12:33;22.10;99.90
14471;DHT22;7321;50.802;4.336;2023-06-14T06:15:00;22.10;99.90
14471;DHT22;7321;50.802;4.336;2023-06-14T06:17:26;22.10;99.90
14471;DHT22;7321;50.802;4.336;2023-06-14T06:19:52;22.20;99.90
14471;DHT22;7321;50.802;4.336;2023-06-14T06:22:18;22.10;99.90
14471;DHT22;7321;50.802;4.336;2023-06-14T06:24:44;22.00;99.90
14471;DHT22;7321;50.802;4.336;2023-06-14T06:27:13;22.20;99.90
14471;DHT22;7321;50.802;4.336;2023-06-14T06:29:39;22.30;99.90
14471;DHT22;7321;50.802;4.336;2023-06-14T06:32:08;22.30;99.90
14471;DHT22;7321;50.802;4.336;2023-06-14T06:34:36;22.30;99.90
14471;DHT22;7321;50.802;4.336;2023-06-14T06:37:03;22.50;99.90
14471;DHT22;7321;50.802;4.336;2023-06-14T06:39:28;22.50;99.90
14471;DHT22;7321;50.802;4.336;2023-06-14T06:41:54;22.70;99.90
14471;DHT22;7321;50.802;4.336;2023-06-14T06:44:20;22.60;99.90
14471;DHT22;7321;50.802;4.336;2023-06-14T06:46:46;22.40;99.90
14471;DHT22;7321;50.802;4.336;2023-06-14T06:49:12;22.60;99.90
14471;DHT22;7321;50.802;4.336;2023-06-14T06:51:41;22.60;99.90
14471;DHT22;7321;50.802;4.336;2023-06-14T06:54:10;22.70;99.90
14471;DHT22;7321;50.802;4.336;2023-06-14T06:56:36;23.00;99.90
14471;DHT22;7321;50.802;4.336;2023-06-14T06:59:02;23.20;99.90
14471;DHT22;7321;50.802;4.336;2023-06-14T07:01:28;23.40;99.90
14471;DHT22;7321;50.802;4.336;2023-06-14T07:03:55;23.60;99.90
14471;DHT22;7321;50.802;4.336;2023-06-14T07:06:21;23.70;99.90
14471;DHT22;7321;50.802;4.336;2023-06-14T07:08:47;23.50;99.90
14471;DHT22;7321;50.802;4.336;2023-06-14T07:11:15;23.30;99.90
14471;DHT22;7321;50.802;4.336;2023-06-14T07:13:41;23.10;99.90
14471;DHT22;7321;50.802;4.336;2023-06-14T07:16:06;23.10;99.90
14471;DHT22;7321;50.802;4.336;2023-06-14T07:18:32;23.20;99.90
14471;DHT22;7321;50.802;4.336;2023-06-14T07:20:58;23.40;99.90
14471;DHT22;7321;50.802;4.336;2023-06-14T07:23:24;23.70;99.90
14471;DHT22;7321;50.802;4.336;2023-06-14T07:25:50;23.90;99.90
14471;DHT22;7321;50.802;4.336;2023-06-14T07:28:16;24.10;99.90
14471;DHT22;7321;50.802;4.336;2023-06-14T07:30:42;24.30;99.90
14471;DHT22;7321;50.802;4.336;2023-06-14T07:33:08;24.30;99.90
14471;DHT22;7321;50.802;4.336;2023-06-14T07:35:34;24.40;99.90
14471;DHT22;7321;50.802;4.336;2023-06-14T07:38:00;24.50;99.90
14471;DHT22;7321;50.802;4.336;2023-06-14T07:40:26;24.80;99.90
14471;DHT22;7321;50.802;4.336;2023-06-14T07:42:51;25.00;99.90
14471;DHT22;7321;50.802;4.336;2023-06-14T07:45:19;25.00;99.90
14471;DHT22;7321;50.802;4.336;2023-06-14T07:47:45;25.00;99.90
14471;DHT22;7321;50.802;4.336;2023-06-14T07:50:11;25.10;99.90
14471;DHT22;7321;50.802;4.336;2023-06-14T07:52:38;25.20;99.90
14471;DHT22;7321;50.802;4.336;2023-06-14T07:55:04;25.30;99.90
14471;DHT22;7321;50.802;4.336;2023-06-14T07:57:31;25.40;99.90
14471;DHT22;7321;50.802;4.336;2023-06-14T07:59:56;25.60;99.90
14471;DHT22;7321;50.802;4.336;2023-06-14T08:02:22;25.80;99.90
14471;DHT22;7321;50.802;4.336;2023-06-14T08:04:48;25.90;99.90
14471;DHT22;7321;50.802;4.336;2023-06-14T08:07:14;26.10;99.90
14471;DHT22;7321;50.802;4.336;2023-06-14T08:09:40;26.10;99.90
14471;DHT22;7321;50.802;4.336;2023-06-14T08:12:07;26.20;99.30
14471;DHT22;7321;50.802;4.336;2023-06-14T08:14:35;26.40;98.70
14471;DHT22;7321;50.802;4.336;2023-06-14T08:17:01;26.40;97.60
14471;DHT22;7321;50.802;4.336;2023-06-14T08:19:27;26.60;97.00
14471;DHT22;7321;50.802;4.336;2023-06-14T08:21:53;26.80;96.80
14471;DHT22;7321;50.802;4.336;2023-06-14T08:24:23;26.90;96.00
14471;DHT22;7321;50.802;4.336;2023-06-14T08:26:50;27.10;92.70
14471;DHT22;7321;50.802;4.336;2023-06-14T08:29:16;26.90;90.10
14471;DHT22;7321;50.802;4.336;2023-06-14T08:31:42;26.60;89.70
14471;DHT22;7321;50.802;4.336;2023-06-14T08:34:07;26.50;91.00
14471;DHT22;7321;50.802;4.336;2023-06-14T08:36:35;26.40;90.90
14471;DHT22;7321;50.802;4.336;2023-06-14T08:39:01;26.60;90.70
14471;DHT22;7321;50.802;4.336;2023-06-14T08:41:28;26.70;91.10
14471;DHT22;7321;50.802;4.336;2023-06-14T08:43:56;26.80;90.40
14471;DHT22;7321;50.802;4.336;2023-06-14T08:46:25;27.10;89.80
14471;DHT22;7321;50.802;4.336;2023-06-14T08:48:54;27.20;89.50
14471;DHT22;7321;50.802;4.336;2023-06-14T08:51:22;27.10;86.60
14471;DHT22;7321;50.802;4.336;2023-06-14T08:53:55;26.80;89.20
14471;DHT22;7321;50.802;4.336;2023-06-14T08:56:26;26.80;90.80
14471;DHT22;7321;50.802;4.336;2023-06-14T08:58:53;26.80;90.60
14471;DHT22;7321;50.802;4.336;2023-06-14T09:01:23;26.80;91.60
14471;DHT22;7321;50.802;4.336;2023-06-14T09:03:50;26.70;90.20
14471;DHT22;7321;50.802;4.336;2023-06-14T09:06:17;26.60;91.60
14471;DHT22;7321;50.802;4.336;2023-06-14T09:08:45;26.50;91.00
14471;DHT22;7321;50.802;4.336;2023-06-14T09:11:18;26.30;91.90
14471;DHT22;7321;50.802;4.336;2023-06-14T09:13:45;26.10;91.90
14471;DHT22;7321;50.802;4.336;2023-06-14T09:16:12;25.60;92.70
14471;DHT22;7321;50.802;4.336;2023-06-14T09:21:08;25.50;94.50
14471;DHT22;7321;50.802;4.336;2023-06-14T09:23:43;25.60;95.20
14471;DHT22;7321;50.802;4.336;2023-06-14T09:26:15;25.70;93.60
14471;DHT22;7321;50.802;4.336;2023-06-14T09:28:42;25.80;94.60
14471;DHT22;7321;50.802;4.336;2023-06-14T09:31:15;25.80;94.00
14471;DHT22;7321;50.802;4.336;2023-06-14T09:33:45;25.80;94.50
14471;DHT22;7321;50.802;4.336;2023-06-14T09:36:26;25.90;94.60
14471;DHT22;7321;50.802;4.336;2023-06-14T09:39:00;26.10;94.70
14471;DHT22;7321;50.802;4.336;2023-06-14T09:41:37;26.20;94.20
14471;DHT22;7321;50.802;4.336;2023-06-14T09:44:06;26.40;92.70
14471;DHT22;7321;50.802;4.336;2023-06-14T09:46:33;26.40;92.90
14471;DHT22;7321;50.802;4.336;2023-06-14T09:49:00;26.50;93.70
14471;DHT22;7321;50.802;4.336;2023-06-14T09:51:27;26.60;94.30
14471;DHT22;7321;50.802;4.336;2023-06-14T09:54:02;26.60;92.90
14471;DHT22;7321;50.802;4.336;2023-06-14T09:56:42;26.60;94.10
14471;DHT22;7321;50.802;4.336;2023-06-14T09:59:32;26.60;93.20
14471;DHT22;7321;50.802;4.336;2023-06-14T10:01:58;26.60;91.10
14471;DHT22;7321;50.802;4.336;2023-06-14T10:04:28;26.60;91.10
14471;DHT22;7321;50.802;4.336;2023-06-14T10:06:54;26.70;87.40
14471;DHT22;7321;50.802;4.336;2023-06-14T10:09:21;26.80;88.00
14471;DHT22;7321;50.802;4.336;2023-06-14T10:11:48;26.90;86.30
14471;DHT22;7321;50.802;4.336;2023-06-14T10:14:14;27.10;86.50
14471;DHT22;7321;50.802;4.336;2023-06-14T10:19:28;27.00;82.60
14471;DHT22;7321;50.802;4.336;2023-06-14T10:22:23;26.80;85.80
14471;DHT22;7321;50.802;4.336;2023-06-14T10:24:50;27.10;84.90
14471;DHT22;7321;50.802;4.336;2023-06-14T10:27:17;26.80;83.80
14471;DHT22;7321;50.802;4.336;2023-06-14T10:32:24;26.90;87.00
14471;DHT22;7321;50.802;4.336;2023-06-14T10:35:01;27.10;84.90
14471;DHT22;7321;50.802;4.336;2023-06-14T10:37:29;27.10;84.90
14471;DHT22;7321;50.802;4.336;2023-06-14T10:39:55;27.10;83.70
14471;DHT22;7321;50.802;4.336;2023-06-14T10:42:21;27.20;81.00
14471;DHT22;7321;50.802;4.336;2023-06-14T10:44:58;27.30;82.90
14471;DHT22;7321;50.802;4.336;2023-06-14T10:52:29;27.30;82.50
14471;DHT22;7321;50.802;4.336;2023-06-14T10:57:21;27.80;79.50
14471;DHT22;7321;50.802;4.336;2023-06-14T10:59:47;28.10;77.00
14471;DHT22;7321;50.802;4.336;2023-06-14T11:04:52;28.10;71.90
14471;DHT22;7321;50.802;4.336;2023-06-14T11:12:59;27.50;74.60
14471;DHT22;7321;50.802;4.336;2023-06-14T11:15:33;27.80;74.90
14471;DHT22;7321;50.802;4.336;2023-06-14T11:18:07;27.90;72.00
14471;DHT22;7321;50.802;4.336;2023-06-14T11:20:39;28.10;71.40
14471;DHT22;7321;50.802;4.336;2023-06-14T11:23:25;28.30;69.60
14471;DHT22;7321;50.802;4.336;2023-06-14T11:26:09;28.40;68.60
14471;DHT22;7321;50.802;4.336;2023-06-14T11:28:42;28.50;66.90
14471;DHT22;7321;50.802;4.336;2023-06-14T11:34:00;28.10;67.60
14471;DHT22;7321;50.802;4.336;2023-06-14T11:36:30;28.20;66.70
14471;DHT22;7321;50.802;4.336;2023-06-14T11:39:04;28.00;67.00
14471;DHT22;7321;50.802;4.336;2023-06-14T11:41:38;28.10;66.50
14471;DHT22;7321;50.802;4.336;2023-06-14T11:44:18;28.00;65.00
14471;DHT22;7321;50.802;4.336;2023-06-14T11:46:47;27.90;64.90
14471;DHT22;7321;50.802;4.336;2023-06-14T11:49:13;28.10;64.90
14471;DHT22;7321;50.802;4.336;2023-06-14T11:51:39;28.30;65.70
14471;DHT22;7321;50.802;4.336;2023-06-14T11:54:08;28.70;65.70
14471;DHT22;7321;50.802;4.336;2023-06-14T11:56:36;28.70;63.40
14471;DHT22;7321;50.802;4.336;2023-06-14T11:59:03;28.50;63.00
14471;DHT22;7321;50.802;4.336;2023-06-14T12:01:31;28.30;63.20
14471;DHT22;7321;50.802;4.336;2023-06-14T12:03:57;28.20;64.10
14471;DHT22;7321;50.802;4.336;2023-06-14T12:06:29;28.20;64.50
14471;DHT22;7321;50.802;4.336;2023-06-14T12:08:58;28.30;64.10
14471;DHT22;7321;50.802;4.336;2023-06-14T12:11:27;28.40;62.70
14471;DHT22;7321;50.802;4.336;2023-06-14T12:13:54;27.90;64.30
14471;DHT22;7321;50.802;4.336;2023-06-14T12:16:19;27.70;64.10
14471;DHT22;7321;50.802;4.336;2023-06-14T12:18:46;27.60;63.60
14471;DHT22;7321;50.802;4.336;2023-06-14T12:21:11;27.40;64.70
14471;DHT22;7321;50.802;4.336;2023-06-14T12:26:18;26.90;65.20
14471;DHT22;7321;50.802;4.336;2023-06-14T12:28:45;27.10;63.60
14471;DHT22;7321;50.802;4.336;2023-06-14T12:31:13;27.10;63.70
14471;DHT22;7321;50.802;4.336;2023-06-14T12:33:40;27.20;64.50
14471;DHT22;7321;50.802;4.336;2023-06-14T12:36:08;27.40;63.40
14471;DHT22;7321;50.802;4.336;2023-06-14T12:38:34;27.50;62.90
14471;DHT22;7321;50.802;4.336;2023-06-14T12:41:00;27.70;63.10
14471;DHT22;7321;50.802;4.336;2023-06-14T12:43:29;27.80;62.60
14471;DHT22;7321;50.802;4.336;2023-06-14T12:45:58;28.00;62.50
14471;DHT22;7321;50.802;4.336;2023-06-14T12:48:24;27.90;62.70
14471;DHT22;7321;50.802;4.336;2023-06-14T12:50:49;27.90;59.10
14471;DHT22;7321;50.802;4.336;2023-06-14T12:53:15;28.00;58.80
14471;DHT22;7321;50.802;4.336;2023-06-14T12:55:41;27.80;59.80
14471;DHT22;7321;50.802;4.336;2023-06-14T12:58:07;27.80;60.50
14471;DHT22;7321;50.802;4.336;2023-06-14T13:00:33;27.80;59.40
14471;DHT22;7321;50.802;4.336;2023-06-14T13:02:59;27.60;59.50
14471;DHT22;7321;50.802;4.336;2023-06-14T13:05:25;27.60;59.10
14471;DHT22;7321;50.802;4.336;2023-06-14T13:07:51;27.80;58.60
14471;DHT22;7321;50.802;4.336;2023-06-14T13:10:17;27.90;58.40
14471;DHT22;7321;50.802;4.336;2023-06-14T13:12:43;27.80;58.80
14471;DHT22;7321;50.802;4.336;2023-06-14T13:15:09;27.70;59.20
14471;DHT22;7321;50.802;4.336;2023-06-14T13:17:36;27.70;59.90
14471;DHT22;7321;50.802;4.336;2023-06-14T13:20:06;27.60;58.50
14471;DHT22;7321;50.802;4.336;2023-06-14T13:22:32;27.60;58.60
14471;DHT22;7321;50.802;4.336;2023-06-14T13:24:58;27.70;59.30
14471;DHT22;7321;50.802;4.336;2023-06-14T13:27:25;27.70;58.70
14471;DHT22;7321;50.802;4.336;2023-06-14T13:29:51;27.80;58.90
14471;DHT22;7321;50.802;4.336;2023-06-14T13:32:17;27.80;58.10
14471;DHT22;7321;50.802;4.336;2023-06-14T13:34:42;27.90;58.60
14471;DHT22;7321;50.802;4.336;2023-06-14T13:37:08;27.90;58.60
14471;DHT22;7321;50.802;4.336;2023-06-14T13:39:34;27.80;57.70
14471;DHT22;7321;50.802;4.336;2023-06-14T13:42:03;27.60;58.40
14471;DHT22;7321;50.802;4.336;2023-06-14T13:44:29;27.50;58.30
14471;DHT22;7321;50.802;4.336;2023-06-14T13:46:55;27.40;58.70
14471;DHT22;7321;50.802;4.336;2023-06-14T13:49:20;27.20;58.00
14471;DHT22;7321;50.802;4.336;2023-06-14T13:51:47;27.20;58.20
14471;DHT22;7321;50.802;4.336;2023-06-14T13:54:13;27.00;57.70
14471;DHT22;7321;50.802;4.336;2023-06-14T13:56:42;27.10;58.10
14471;DHT22;7321;50.802;4.336;2023-06-14T13:59:08;27.30;57.60
14471;DHT22;7321;50.802;4.336;2023-06-14T14:01:34;27.20;57.60
14471;DHT22;7321;50.802;4.336;2023-06-14T14:04:03;27.30;58.10
14471;DHT22;7321;50.802;4.336;2023-06-14T14:06:34;27.60;58.70
14471;DHT22;7321;50.802;4.336;2023-06-14T14:09:00;27.70;57.00
14471;DHT22;7321;50.802;4.336;2023-06-14T14:11:26;27.70;55.50
14471;DHT22;7321;50.802;4.336;2023-06-14T14:13:54;27.80;56.00
14471;DHT22;7321;50.802;4.336;2023-06-14T14:16:19;27.90;54.50
14471;DHT22;7321;50.802;4.336;2023-06-14T14:18:46;28.30;53.20
14471;DHT22;7321;50.802;4.336;2023-06-14T14:21:12;28.20;51.40
14471;DHT22;7321;50.802;4.336;2023-06-14T14:23:37;28.00;50.90
14471;DHT22;7321;50.802;4.336;2023-06-14T14:26:03;27.70;52.40
14471;DHT22;7321;50.802;4.336;2023-06-14T14:28:30;27.70;53.20
14471;DHT22;7321;50.802;4.336;2023-06-14T14:30:56;27.70;53.80
14471;DHT22;7321;50.802;4.336;2023-06-14T14:33:22;27.70;54.20
14471;DHT22;7321;50.802;4.336;2023-06-14T14:35:48;27.90;53.80
14471;DHT22;7321;50.802;4.336;2023-06-14T14:38:14;28.00;52.50
14471;DHT22;7321;50.802;4.336;2023-06-14T14:40:44;28.10;51.50
14471;DHT22;7321;50.802;4.336;2023-06-14T14:43:11;28.00;50.60
14471;DHT22;7321;50.802;4.336;2023-06-14T14:45:37;27.80;50.80
14471;DHT22;7321;50.802;4.336;2023-06-14T14:48:03;27.80;51.50
14471;DHT22;7321;50.802;4.336;2023-06-14T14:50:29;27.90;50.80
14471;DHT22;7321;50.802;4.336;2023-06-14T14:52:55;28.20;50.10
14471;DHT22;7321;50.802;4.336;2023-06-14T14:55:22;28.50;49.70
14471;DHT22;7321;50.802;4.336;2023-06-14T14:57:47;28.70;48.90
14471;DHT22;7321;50.802;4.336;2023-06-14T15:00:14;28.80;49.30
14471;DHT22;7321;50.802;4.336;2023-06-14T15:02:40;28.80;49.50
14471;DHT22;7321;50.802;4.336;2023-06-14T15:05:06;28.80;49.20
14471;DHT22;7321;50.802;4.336;2023-06-14T15:07:32;28.80;48.80
14471;DHT22;7321;50.802;4.336;2023-06-14T15:09:59;28.80;49.20
14471;DHT22;7321;50.802;4.336;2023-06-14T15:12:25;28.80;49.00
14471;DHT22;7321;50.802;4.336;2023-06-14T15:14:52;28.70;47.80
14471;DHT22;7321;50.802;4.336;2023-06-14T15:17:19;28.60;47.20
14471;DHT22;7321;50.802;4.336;2023-06-14T15:19:46;28.70;47.80
14471;DHT22;7321;50.802;4.336;2023-06-14T15:22:13;28.80;47.30
14471;DHT22;7321;50.802;4.336;2023-06-14T15:24:41;29.10;47.50
14471;DHT22;7321;50.802;4.336;2023-06-14T15:27:07;29.50;46.80
14471;DHT22;7321;50.802;4.336;2023-06-14T15:29:33;29.80;46.10
14471;DHT22;7321;50.802;4.336;2023-06-14T15:32:01;29.90;45.90
14471;DHT22;7321;50.802;4.336;2023-06-14T15:34:26;29.80;45.90
14471;DHT22;7321;50.802;4.336;2023-06-14T15:36:52;29.70;46.20
14471;DHT22;7321;50.802;4.336;2023-06-14T15:39:18;29.40;45.90
14471;DHT22;7321;50.802;4.336;2023-06-14T15:41:44;29.30;47.60
14471;DHT22;7321;50.802;4.336;2023-06-14T15:44:10;29.30;46.30
14471;DHT22;7321;50.802;4.336;2023-06-14T15:46:36;29.30;46.10
14471;DHT22;7321;50.802;4.336;2023-06-14T15:49:08;29.30;46.10
14471;DHT22;7321;50.802;4.336;2023-06-14T15:51:35;29.50;46.40
14471;DHT22;7321;50.802;4.336;2023-06-14T15:54:01;29.80;46.40
14471;DHT22;7321;50.802;4.336;2023-06-14T15:56:26;30.00;45.90
14471;DHT22;7321;50.802;4.336;2023-06-14T15:58:52;30.00;45.00
14471;DHT22;7321;50.802;4.336;2023-06-14T16:01:18;30.10;44.90
14471;DHT22;7321;50.802;4.336;2023-06-14T16:03:44;30.00;45.00
14471;DHT22;7321;50.802;4.336;2023-06-14T16:06:10;30.20;44.60
14471;DHT22;7321;50.802;4.336;2023-06-14T16:08:36;30.30;44.60
14471;DHT22;7321;50.802;4.336;2023-06-14T16:11:01;30.20;43.80
14471;DHT22;7321;50.802;4.336;2023-06-14T16:13:27;30.00;44.10
14471;DHT22;7321;50.802;4.336;2023-06-14T16:15:53;30.00;44.60
14471;DHT22;7321;50.802;4.336;2023-06-14T16:18:19;30.40;44.70
14471;DHT22;7321;50.802;4.336;2023-06-14T16:20:45;30.80;43.90
14471;DHT22;7321;50.802;4.336;2023-06-14T16:23:10;30.70;43.60